sensor_id;sensor_type;location;lat;lon;timestamp;pressure;altitude;pressure_sealevel;temperature;humidity
38163;BME280;23977;53.078;18.248;2024-01-30T00:01:14;102756.13;;;-0.71;100.00
38163;BME280;23977;53.078;18.248;2024-01-30T00:03:50;102647.94;;;-1.36;100.00
38163;BME280;23977;53.078;18.248;2024-01-30T00:06:24;102742.22;;;-0.71;100.00
38163;BME280;23977;53.078;18.248;2024-01-30T00:08:50;102796.34;;;-0.41;100.00
38163;BME280;23977;53.078;18.248;2024-01-30T00:11:18;102567.81;;;-1.71;100.00
38163;BME280;23977;53.078;18.248;2024-01-30T00:13:45;102770.13;;;-0.38;100.00
38163;BME280;23977;53.078;18.248;2024-01-30T00:16:23;102769.28;;;-0.38;100.00
38163;BME280;23977;53.078;18.248;2024-01-30T00:18:53;102699.41;;;-0.67;100.00
38163;BME280;23977;53.078;18.248;2024-01-30T00:21:25;102740.47;;;-0.36;100.00
38163;BME280;23977;53.078;18.248;2024-01-30T00:23:50;102696.03;;;-0.72;100.00
38163;BME280;23977;53.078;18.248;2024-01-30T00:26:16;102785.91;;;-0.41;100.00
38163;BME280;23977;53.078;18.248;2024-01-30T00:28:42;102711.81;;;-0.76;100.00
38163;BME280;23977;53.078;18.248;2024-01-30T00:31:10;102793.34;;;-0.25;100.00
38163;BME280;23977;53.078;18.248;2024-01-30T00:33:42;102768.94;;;-0.60;100.00
38163;BME280;23977;53.078;18.248;2024-01-30T00:36:17;102687.75;;;-1.26;100.00
38163;BME280;23977;53.078;18.248;2024-01-30T00:38:44;102781.72;;;-0.84;100.00
38163;BME280;23977;53.078;18.248;2024-01-30T00:41:11;102681.50;;;-1.56;100.00
38163;BME280;23977;53.078;18.248;2024-01-30T00:43:38;102729.66;;;-1.31;100.00
38163;BME280;23977;53.078;18.248;2024-01-30T00:46:05;102616.88;;;-1.86;100.00
38163;BME280;23977;53.078;18.248;2024-01-30T00:48:30;102748.47;;;-1.15;100.00
38163;BME280;23977;53.078;18.248;2024-01-30T00:50:56;102768.31;;;-1.07;100.00
38163;BME280;23977;53.078;18.248;2024-01-30T00:53:22;102603.47;;;-2.09;100.00
38163;BME280;23977;53.078;18.248;2024-01-30T00:55:49;102625.84;;;-1.99;100.00
38163;BME280;23977;53.078;18.248;2024-01-30T00:58:15;102692.31;;;-1.73;100.00
38163;BME280;23977;53.078;18.248;2024-01-30T01:00:42;102727.81;;;-1.66;100.00
38163;BME280;23977;53.078;18.248;2024-01-30T01:03:07;102714.78;;;-1.66;100.00
38163;BME280;23977;53.078;18.248;2024-01-30T01:05:33;102743.16;;;-1.51;100.00
38163;BME280;23977;53.078;18.248;2024-01-30T01:07:59;102777.34;;;-1.21;100.00
38163;BME280;23977;53.078;18.248;2024-01-30T01:10:27;102749.81;;;-1.37;100.00
38163;BME280;23977;53.078;18.248;2024-01-30T01:12:53;102688.75;;;-1.71;100.00
38163;BME280;23977;53.078;18.248;2024-01-30T01:15:19;102725.63;;;-1.45;100.00
38163;BME280;23977;53.078;18.248;2024-01-30T01:17:45;102628.50;;;-2.00;100.00
38163;BME280;23977;53.078;18.248;2024-01-30T01:20:11;102768.44;;;-1.12;100.00
38163;BME280;23977;53.078;18.248;2024-01-30T01:22:37;102768.53;;;-1.17;100.00
38163;BME280;23977;53.078;18.248;2024-01-30T01:25:04;102723.03;;;-1.45;100.00
38163;BME280;23977;53.078;18.248;2024-01-30T01:27:32;102591.75;;;-2.32;100.00
38163;BME280;23977;53.078;18.248;2024-01-30T01:30:00;102683.72;;;-1.80;100.00
38163;BME280;23977;53.078;18.248;2024-01-30T01:32:25;102672.00;;;-2.01;100.00
38163;BME280;23977;53.078;18.248;2024-01-30T01:34:51;102672.81;;;-1.99;100.00
38163;BME280;23977;53.078;18.248;2024-01-30T01:37:17;102739.03;;;-1.61;100.00
38163;BME280;23977;53.078;18.248;2024-01-30T01:39:43;102590.09;;;-2.36;100.00
38163;BME280;23977;53.078;18.248;2024-01-30T01:42:09;102766.47;;;-1.41;100.00
38163;BME280;23977;53.078;18.248;2024-01-30T01:44:35;102617.88;;;-2.35;100.00
38163;BME280;23977;53.078;18.248;2024-01-30T01:47:00;102766.75;;;-1.55;100.00
38163;BME280;23977;53.078;18.248;2024-01-30T01:49:28;102710.16;;;-1.97;100.00
38163;BME280;23977;53.078;18.248;2024-01-30T01:51:55;102766.00;;;-1.62;100.00
38163;BME280;23977;53.078;18.248;2024-01-30T01:54:23;102758.81;;;-1.51;100.00
38163;BME280;23977;53.078;18.248;2024-01-30T01:56:50;102771.06;;;-1.53;100.00
38163;BME280;23977;53.078;18.248;2024-01-30T01:59:17;102755.38;;;-1.53;100.00
38163;BME280;23977;53.078;18.248;2024-01-30T02:01:43;102753.81;;;-1.60;100.00
38163;BME280;23977;53.078;18.248;2024-01-30T02:04:11;102703.13;;;-1.93;100.00
38163;BME280;23977;53.078;18.248;2024-01-30T02:06:37;102641.47;;;-2.39;100.00
38163;BME280;23977;53.078;18.248;2024-01-30T02:09:03;102702.72;;;-2.15;100.00
38163;BME280;23977;53.078;18.248;2024-01-30T02:11:30;102703.59;;;-2.15;100.00
38163;BME280;23977;53.078;18.248;2024-01-30T02:14:04;102758.81;;;-1.93;100.00
38163;BME280;23977;53.078;18.248;2024-01-30T02:16:30;102693.44;;;-2.32;100.00
38163;BME280;23977;53.078;18.248;2024-01-30T02:18:57;102728.78;;;-2.15;100.00
38163;BME280;23977;53.078;18.248;2024-01-30T02:21:22;102750.47;;;-2.12;100.00
38163;BME280;23977;53.078;18.248;2024-01-30T02:23:48;102638.66;;;-2.75;100.00
38163;BME280;23977;53.078;18.248;2024-01-30T02:26:14;102738.16;;;-2.05;100.00
38163;BME280;23977;53.078;18.248;2024-01-30T02:28:40;102704.56;;;-2.22;100.00
38163;BME280;23977;53.078;18.248;2024-01-30T02:31:05;102699.44;;;-2.27;100.00
38163;BME280;23977;53.078;18.248;2024-01-30T02:33:32;102757.31;;;-2.05;100.00
38163;BME280;23977;53.078;18.248;2024-01-30T02:35:58;102667.00;;;-2.58;100.00
38163;BME280;23977;53.078;18.248;2024-01-30T02:38:24;102752.28;;;-2.15;100.00
38163;BME280;23977;53.078;18.248;2024-01-30T02:40:52;102764.28;;;-2.07;100.00
38163;BME280;23977;53.078;18.248;2024-01-30T02:43:18;102625.97;;;-2.95;100.00
38163;BME280;23977;53.078;18.248;2024-01-30T02:45:43;102768.63;;;-2.07;100.00
38163;BME280;23977;53.078;18.248;2024-01-30T02:48:09;102622.56;;;-2.99;100.00
38163;BME280;23977;53.078;18.248;2024-01-30T02:50:34;102710.22;;;-2.45;100.00
38163;BME280;23977;53.078;18.248;2024-01-30T02:53:00;102657.09;;;-2.86;100.00
38163;BME280;23977;53.078;18.248;2024-01-30T02:55:26;102620.31;;;-3.19;100.00
38163;BME280;23977;53.078;18.248;2024-01-30T02:57:52;102647.16;;;-3.17;100.00
38163;BME280;23977;53.078;18.248;2024-01-30T03:00:20;102623.78;;;-3.20;100.00
38163;BME280;23977;53.078;18.248;2024-01-30T03:02:46;102759.69;;;-2.40;100.00
38163;BME280;23977;53.078;18.248;2024-01-30T03:05:11;102655.88;;;-2.68;100.00
38163;BME280;23977;53.078;18.248;2024-01-30T03:07:37;102632.88;;;-2.91;100.00
38163;BME280;23977;53.078;18.248;2024-01-30T03:10:04;102706.50;;;-2.32;100.00
38163;BME280;23977;53.078;18.248;2024-01-30T03:12:32;102563.03;;;-3.21;100.00
38163;BME280;23977;53.078;18.248;2024-01-30T03:14:58;102640.94;;;-2.58;100.00
38163;BME280;23977;53.078;18.248;2024-01-30T03:17:23;102587.78;;;-2.97;100.00
38163;BME280;23977;53.078;18.248;2024-01-30T03:19:49;102706.13;;;-2.13;100.00
38163;BME280;23977;53.078;18.248;2024-01-30T03:22:16;102752.78;;;-1.95;100.00
38163;BME280;23977;53.078;18.248;2024-01-30T03:24:41;102723.53;;;-2.14;100.00
38163;BME280;23977;53.078;18.248;2024-01-30T03:27:08;102624.81;;;-2.79;100.00
38163;BME280;23977;53.078;18.248;2024-01-30T03:29:33;102716.22;;;-2.42;100.00
38163;BME280;23977;53.078;18.248;2024-01-30T03:31:59;102585.41;;;-3.09;100.00
38163;BME280;23977;53.078;18.248;2024-01-30T03:34:25;102674.56;;;-2.43;100.00
38163;BME280;23977;53.078;18.248;2024-01-30T03:36:51;102590.19;;;-2.84;100.00
38163;BME280;23977;53.078;18.248;2024-01-30T03:39:16;102704.53;;;-2.20;100.00
38163;BME280;23977;53.078;18.248;2024-01-30T03:41:42;102716.75;;;-2.22;100.00
38163;BME280;23977;53.078;18.248;2024-01-30T03:44:10;102684.09;;;-2.42;100.00
38163;BME280;23977;53.078;18.248;2024-01-30T03:46:36;102653.38;;;-2.73;100.00
38163;BME280;23977;53.078;18.248;2024-01-30T03:49:01;102656.44;;;-2.51;100.00
38163;BME280;23977;53.078;18.248;2024-01-30T03:51:28;102616.81;;;-2.70;100.00
38163;BME280;23977;53.078;18.248;2024-01-30T03:53:53;102684.88;;;-2.38;100.00
38163;BME280;23977;53.078;18.248;2024-01-30T03:56:19;102735.31;;;-1.93;100.00
38163;BME280;23977;53.078;18.248;2024-01-30T03:58:45;102709.41;;;-2.02;100.00
38163;BME280;23977;53.078;18.248;2024-01-30T04:01:14;102637.91;;;-2.37;100.00
38163;BME280;23977;53.078;18.248;2024-01-30T04:03:40;102743.72;;;-1.78;100.00
38163;BME280;23977;53.078;18.248;2024-01-30T04:06:06;102738.50;;;-1.78;100.00
38163;BME280;23977;53.078;18.248;2024-01-30T04:08:33;102624.91;;;-2.38;100.00
38163;BME280;23977;53.078;18.248;2024-01-30T04:11:14;102697.28;;;-2.03;100.00
38163;BME280;23977;53.078;18.248;2024-01-30T04:13:39;102574.50;;;-2.83;100.00
38163;BME280;23977;53.078;18.248;2024-01-30T04:16:07;102745.34;;;-1.71;100.00
38163;BME280;23977;53.078;18.248;2024-01-30T04:18:35;102643.91;;;-2.32;100.00
38163;BME280;23977;53.078;18.248;2024-01-30T04:21:01;102620.81;;;-2.52;100.00
38163;BME280;23977;53.078;18.248;2024-01-30T04:23:27;102573.47;;;-2.74;100.00
38163;BME280;23977;53.078;18.248;2024-01-30T04:25:52;102645.69;;;-2.34;100.00
38163;BME280;23977;53.078;18.248;2024-01-30T04:28:18;102672.38;;;-2.19;100.00
38163;BME280;23977;53.078;18.248;2024-01-30T04:30:44;102679.06;;;-2.06;100.00
38163;BME280;23977;53.078;18.248;2024-01-30T04:33:10;102701.41;;;-1.93;100.00
38163;BME280;23977;53.078;18.248;2024-01-30T04:35:35;102678.84;;;-1.97;100.00
38163;BME280;23977;53.078;18.248;2024-01-30T04:38:01;102683.13;;;-1.93;100.00
38163;BME280;23977;53.078;18.248;2024-01-30T04:40:27;102732.81;;;-1.57;100.00
38163;BME280;23977;53.078;18.248;2024-01-30T04:42:53;102640.91;;;-2.13;100.00
38163;BME280;23977;53.078;18.248;2024-01-30T04:45:18;102745.44;;;-1.37;100.00
38163;BME280;23977;53.078;18.248;2024-01-30T04:47:44;102692.50;;;-1.43;100.00
38163;BME280;23977;53.078;18.248;2024-01-30T04:50:09;102665.09;;;-1.63;100.00
38163;BME280;23977;53.078;18.248;2024-01-30T04:52:35;102752.59;;;-1.04;100.00
38163;BME280;23977;53.078;18.248;2024-01-30T04:55:01;102690.06;;;-1.14;100.00
38163;BME280;23977;53.078;18.248;2024-01-30T04:57:28;102650.66;;;-1.40;100.00
38163;BME280;23977;53.078;18.248;2024-01-30T04:59:54;102728.72;;;-0.90;100.00
38163;BME280;23977;53.078;18.248;2024-01-30T05:02:20;102602.66;;;-1.72;100.00
38163;BME280;23977;53.078;18.248;2024-01-30T05:04:47;102601.72;;;-1.70;100.00
38163;BME280;23977;53.078;18.248;2024-01-30T05:07:16;102635.88;;;-1.41;100.00
38163;BME280;23977;53.078;18.248;2024-01-30T05:09:43;102587.06;;;-1.75;100.00
38163;BME280;23977;53.078;18.248;2024-01-30T05:12:10;102669.03;;;-1.07;100.00
38163;BME280;23977;53.078;18.248;2024-01-30T05:14:35;102742.97;;;-0.66;100.00
38163;BME280;23977;53.078;18.248;2024-01-30T05:17:01;102698.31;;;-0.93;100.00
38163;BME280;23977;53.078;18.248;2024-01-30T05:19:29;102560.88;;;-1.72;100.00
38163;BME280;23977;53.078;18.248;2024-01-30T05:21:55;102520.75;;;-2.04;100.00
38163;BME280;23977;53.078;18.248;2024-01-30T05:24:21;102642.56;;;-0.95;100.00
38163;BME280;23977;53.078;18.248;2024-01-30T05:26:47;102644.94;;;-0.84;100.00
38163;BME280;23977;53.078;18.248;2024-01-30T05:29:14;102747.41;;;-0.35;100.00
38163;BME280;23977;53.078;18.248;2024-01-30T05:31:40;102583.28;;;-1.26;100.00
38163;BME280;23977;53.078;18.248;2024-01-30T05:34:06;102641.81;;;-0.99;100.00
38163;BME280;23977;53.078;18.248;2024-01-30T05:36:34;102610.13;;;-1.21;100.00
38163;BME280;23977;53.078;18.248;2024-01-30T05:39:00;102637.13;;;-0.86;100.00
38163;BME280;23977;53.078;18.248;2024-01-30T05:41:27;102734.22;;;-0.32;100.00
38163;BME280;23977;53.078;18.248;2024-01-30T05:43:55;102508.06;;;-1.47;100.00
38163;BME280;23977;53.078;18.248;2024-01-30T05:46:26;102568.56;;;-1.30;100.00
38163;BME280;23977;53.078;18.248;2024-01-30T05:48:52;102607.88;;;-1.00;100.00
38163;BME280;23977;53.078;18.248;2024-01-30T05:51:40;102756.31;;;-0.10;100.00
38163;BME280;23977;53.078;18.248;2024-01-30T05:54:06;102702.81;;;-0.31;100.00
38163;BME280;23977;53.078;18.248;2024-01-30T05:56:33;102752.50;;;0.02;100.00
38163;BME280;23977;53.078;18.248;2024-01-30T05:58:59;102693.59;;;-0.46;100.00
38163;BME280;23977;53.078;18.248;2024-01-30T06:01:30;102660.19;;;-0.67;100.00
38163;BME280;23977;53.078;18.248;2024-01-30T06:03:56;102692.94;;;-0.21;100.00
38163;BME280;23977;53.078;18.248;2024-01-30T06:06:24;102746.16;;;0.11;100.00
38163;BME280;23977;53.078;18.248;2024-01-30T06:24:05;102632.47;;;-0.42;100.00
38163;BME280;23977;53.078;18.248;2024-01-30T15:41:11;102367.09;;;3.94;88.93
38163;BME280;23977;53.078;18.248;2024-01-30T15:44:02;102510.50;;;4.77;89.24
38163;BME280;23977;53.078;18.248;2024-01-30T15:46:28;102456.47;;;4.33;89.99
38163;BME280;23977;53.078;18.248;2024-01-30T15:48:57;102500.66;;;4.63;90.40
38163;BME280;23977;53.078;18.248;2024-01-30T15:51:23;102489.09;;;4.48;91.33
38163;BME280;23977;53.078;18.248;2024-01-30T23:26:40;102276.50;;;3.26;93.66
